sensor_id;sensor_type;location;lat;lon;timestamp;pressure;altitude;pressure_sealevel;temperature;humidity
11985;BME280;6052;53.246;10.368;2023-08-31T00:02:01;100000.19;;;18.46;90.46
11985;BME280;6052;53.246;10.368;2023-08-31T00:04:31;100002.72;;;18.42;90.61
11985;BME280;6052;53.246;10.368;2023-08-31T00:07:01;99999.53;;;18.27;91.44
11985;BME280;6052;53.246;10.368;2023-08-31T00:09:30;100004.31;;;18.30;91.30
11985;BME280;6052;53.246;10.368;2023-08-31T00:12:00;100002.19;;;18.54;90.37
11985;BME280;6052;53.246;10.368;2023-08-31T00:14:31;100002.34;;;18.35;90.05
11985;BME280;6052;53.246;10.368;2023-08-31T00:17:03;100002.19;;;18.54;89.92
11985;BME280;6052;53.246;10.368;2023-08-31T00:19:33;99991.22;;;18.59;89.21
11985;BME280;6052;53.246;10.368;2023-08-31T00:22:02;99996.03;;;18.62;89.33
11985;BME280;6052;53.246;10.368;2023-08-31T00:24:32;99989.00;;;18.61;89.89
11985;BME280;6052;53.246;10.368;2023-08-31T00:27:03;99992.97;;;18.41;90.25
11985;BME280;6052;53.246;10.368;2023-08-31T00:29:33;99998.22;;;18.38;90.37
11985;BME280;6052;53.246;10.368;2023-08-31T00:32:07;99999.41;;;18.32;91.09
11985;BME280;6052;53.246;10.368;2023-08-31T00:34:37;100006.53;;;18.55;89.48
11985;BME280;6052;53.246;10.368;2023-08-31T00:37:06;100004.22;;;18.48;89.46
11985;BME280;6052;53.246;10.368;2023-08-31T00:39:36;100008.81;;;18.61;89.16
11985;BME280;6052;53.246;10.368;2023-08-31T00:42:05;100008.16;;;18.56;89.51
11985;BME280;6052;53.246;10.368;2023-08-31T00:44:35;100009.56;;;18.40;90.15
11985;BME280;6052;53.246;10.368;2023-08-31T00:47:07;100020.25;;;18.23;90.54
11985;BME280;6052;53.246;10.368;2023-08-31T00:49:37;100010.00;;;18.06;91.02
11985;BME280;6052;53.246;10.368;2023-08-31T00:52:07;100009.97;;;18.33;89.84
11985;BME280;6052;53.246;10.368;2023-08-31T00:54:37;100015.81;;;18.27;90.82
11985;BME280;6052;53.246;10.368;2023-08-31T00:57:09;100013.63;;;18.15;90.72
11985;BME280;6052;53.246;10.368;2023-08-31T00:59:38;100003.63;;;18.11;91.46
11985;BME280;6052;53.246;10.368;2023-08-31T01:02:17;100008.28;;;18.10;91.78
11985;BME280;6052;53.246;10.368;2023-08-31T01:04:53;100010.97;;;18.24;90.59
11985;BME280;6052;53.246;10.368;2023-08-31T01:07:30;100012.22;;;18.18;90.01
11985;BME280;6052;53.246;10.368;2023-08-31T01:10:06;100014.22;;;18.12;90.60
11985;BME280;6052;53.246;10.368;2023-08-31T01:12:46;100017.84;;;18.21;90.56
11985;BME280;6052;53.246;10.368;2023-08-31T01:15:16;100021.25;;;18.13;90.84
11985;BME280;6052;53.246;10.368;2023-08-31T01:17:51;100017.13;;;18.16;91.34
11985;BME280;6052;53.246;10.368;2023-08-31T01:20:31;100012.09;;;17.96;92.89
11985;BME280;6052;53.246;10.368;2023-08-31T01:23:04;100018.53;;;17.73;92.99
11985;BME280;6052;53.246;10.368;2023-08-31T01:25:38;100013.00;;;18.05;92.65
11985;BME280;6052;53.246;10.368;2023-08-31T01:28:10;100013.94;;;18.00;92.17
11985;BME280;6052;53.246;10.368;2023-08-31T01:30:40;100014.44;;;17.75;93.16
11985;BME280;6052;53.246;10.368;2023-08-31T01:33:09;100008.97;;;18.02;91.69
11985;BME280;6052;53.246;10.368;2023-08-31T01:35:42;100012.81;;;17.88;92.14
11985;BME280;6052;53.246;10.368;2023-08-31T01:38:17;100019.22;;;17.92;91.33
11985;BME280;6052;53.246;10.368;2023-08-31T01:40:55;100021.13;;;17.64;92.49
11985;BME280;6052;53.246;10.368;2023-08-31T01:43:27;100022.03;;;17.73;92.81
11985;BME280;6052;53.246;10.368;2023-08-31T01:45:57;100018.16;;;17.93;91.49
11985;BME280;6052;53.246;10.368;2023-08-31T01:48:27;100018.84;;;17.85;91.64
11985;BME280;6052;53.246;10.368;2023-08-31T01:50:57;100021.41;;;17.49;93.22
11985;BME280;6052;53.246;10.368;2023-08-31T01:53:27;100009.19;;;17.79;92.06
11985;BME280;6052;53.246;10.368;2023-08-31T01:55:59;100012.50;;;17.76;92.32
11985;BME280;6052;53.246;10.368;2023-08-31T01:58:29;100017.63;;;17.64;92.52
11985;BME280;6052;53.246;10.368;2023-08-31T02:00:58;100009.38;;;17.69;92.73
11985;BME280;6052;53.246;10.368;2023-08-31T02:03:28;100012.41;;;17.81;91.91
11985;BME280;6052;53.246;10.368;2023-08-31T02:05:57;100011.19;;;17.60;91.40
11985;BME280;6052;53.246;10.368;2023-08-31T02:08:26;100018.72;;;17.31;92.51
11985;BME280;6052;53.246;10.368;2023-08-31T02:10:58;100021.81;;;17.24;93.31
11985;BME280;6052;53.246;10.368;2023-08-31T02:13:29;100028.75;;;17.49;92.20
11985;BME280;6052;53.246;10.368;2023-08-31T02:15:59;100029.56;;;17.31;92.95
11985;BME280;6052;53.246;10.368;2023-08-31T02:18:28;100029.50;;;17.36;92.74
11985;BME280;6052;53.246;10.368;2023-08-31T02:20:58;100038.06;;;17.43;92.65
11985;BME280;6052;53.246;10.368;2023-08-31T02:23:27;100041.22;;;17.31;92.77
11985;BME280;6052;53.246;10.368;2023-08-31T02:25:59;100042.91;;;17.46;91.92
11985;BME280;6052;53.246;10.368;2023-08-31T02:28:29;100049.06;;;17.01;93.50
11985;BME280;6052;53.246;10.368;2023-08-31T02:31:01;100050.06;;;17.23;93.06
11985;BME280;6052;53.246;10.368;2023-08-31T02:33:31;100052.72;;;17.10;92.78
11985;BME280;6052;53.246;10.368;2023-08-31T02:36:00;100045.50;;;17.19;92.91
11985;BME280;6052;53.246;10.368;2023-08-31T02:38:29;100042.19;;;17.22;92.68
11985;BME280;6052;53.246;10.368;2023-08-31T02:41:01;100039.06;;;17.15;92.86
11985;BME280;6052;53.246;10.368;2023-08-31T02:43:31;100043.88;;;17.18;93.13
11985;BME280;6052;53.246;10.368;2023-08-31T02:46:00;100038.53;;;17.13;92.41
11985;BME280;6052;53.246;10.368;2023-08-31T02:48:32;100035.25;;;17.16;92.44
11985;BME280;6052;53.246;10.368;2023-08-31T02:51:02;100033.81;;;16.86;92.51
11985;BME280;6052;53.246;10.368;2023-08-31T02:53:31;100038.94;;;16.88;92.66
11985;BME280;6052;53.246;10.368;2023-08-31T02:56:03;100043.63;;;17.01;91.88
11985;BME280;6052;53.246;10.368;2023-08-31T02:58:33;100035.50;;;17.01;92.58
11985;BME280;6052;53.246;10.368;2023-08-31T03:01:07;100039.03;;;16.83;91.70
11985;BME280;6052;53.246;10.368;2023-08-31T03:03:39;100045.44;;;17.05;92.19
11985;BME280;6052;53.246;10.368;2023-08-31T03:06:09;100048.91;;;16.74;92.55
11985;BME280;6052;53.246;10.368;2023-08-31T03:08:39;100053.38;;;16.65;92.39
11985;BME280;6052;53.246;10.368;2023-08-31T03:11:11;100056.66;;;16.99;91.60
11985;BME280;6052;53.246;10.368;2023-08-31T03:13:42;100056.38;;;17.00;91.23
11985;BME280;6052;53.246;10.368;2023-08-31T03:16:12;100063.38;;;16.46;92.57
11985;BME280;6052;53.246;10.368;2023-08-31T03:18:41;100069.50;;;16.75;92.16
11985;BME280;6052;53.246;10.368;2023-08-31T03:21:10;100060.94;;;16.68;91.74
11985;BME280;6052;53.246;10.368;2023-08-31T03:23:40;100063.28;;;16.74;91.09
11985;BME280;6052;53.246;10.368;2023-08-31T03:26:12;100052.03;;;16.62;91.63
11985;BME280;6052;53.246;10.368;2023-08-31T03:28:42;100054.31;;;16.55;91.58
11985;BME280;6052;53.246;10.368;2023-08-31T03:31:11;100061.97;;;16.72;91.00
11985;BME280;6052;53.246;10.368;2023-08-31T03:33:40;100057.53;;;16.57;90.60
11985;BME280;6052;53.246;10.368;2023-08-31T03:36:10;100064.94;;;16.52;91.05
11985;BME280;6052;53.246;10.368;2023-08-31T03:38:39;100067.38;;;16.90;89.76
11985;BME280;6052;53.246;10.368;2023-08-31T03:41:08;100065.69;;;16.76;89.49
11985;BME280;6052;53.246;10.368;2023-08-31T03:43:40;100066.28;;;16.73;88.90
11985;BME280;6052;53.246;10.368;2023-08-31T03:46:10;100064.75;;;16.85;88.49
11985;BME280;6052;53.246;10.368;2023-08-31T03:48:39;100066.28;;;16.91;88.62
11985;BME280;6052;53.246;10.368;2023-08-31T03:51:09;100066.19;;;16.78;88.65
11985;BME280;6052;53.246;10.368;2023-08-31T03:53:38;100061.81;;;16.82;88.09
11985;BME280;6052;53.246;10.368;2023-08-31T03:56:08;100065.63;;;16.81;87.88
11985;BME280;6052;53.246;10.368;2023-08-31T03:58:38;100063.72;;;16.63;89.43
11985;BME280;6052;53.246;10.368;2023-08-31T04:01:09;100072.19;;;16.56;88.77
11985;BME280;6052;53.246;10.368;2023-08-31T04:03:42;100071.03;;;16.39;89.30
11985;BME280;6052;53.246;10.368;2023-08-31T04:06:11;100084.34;;;16.59;89.67
11985;BME280;6052;53.246;10.368;2023-08-31T04:08:41;100076.34;;;16.49;89.82
11985;BME280;6052;53.246;10.368;2023-08-31T04:11:10;100075.19;;;16.31;90.35
11985;BME280;6052;53.246;10.368;2023-08-31T04:13:39;100081.44;;;16.32;91.12
11985;BME280;6052;53.246;10.368;2023-08-31T04:16:11;100093.66;;;16.53;89.28
11985;BME280;6052;53.246;10.368;2023-08-31T04:18:41;100096.47;;;16.19;90.23
11985;BME280;6052;53.246;10.368;2023-08-31T04:21:14;100086.59;;;16.28;90.05
11985;BME280;6052;53.246;10.368;2023-08-31T04:23:44;100096.41;;;16.24;90.26
11985;BME280;6052;53.246;10.368;2023-08-31T04:26:14;100096.91;;;16.26;90.00
11985;BME280;6052;53.246;10.368;2023-08-31T04:28:44;100104.09;;;16.41;89.88
11985;BME280;6052;53.246;10.368;2023-08-31T04:31:16;100104.75;;;16.28;90.14
11985;BME280;6052;53.246;10.368;2023-08-31T04:33:45;100111.25;;;16.03;90.73
11985;BME280;6052;53.246;10.368;2023-08-31T04:36:14;100111.50;;;16.30;90.14
11985;BME280;6052;53.246;10.368;2023-08-31T04:38:47;100112.88;;;16.28;89.89
11985;BME280;6052;53.246;10.368;2023-08-31T04:41:17;100121.25;;;16.08;90.58
11985;BME280;6052;53.246;10.368;2023-08-31T04:43:46;100117.22;;;16.05;91.41
11985;BME280;6052;53.246;10.368;2023-08-31T04:46:19;100119.53;;;16.12;91.34
11985;BME280;6052;53.246;10.368;2023-08-31T04:48:48;100114.66;;;16.14;90.16
11985;BME280;6052;53.246;10.368;2023-08-31T04:51:29;100125.56;;;16.09;90.96
11985;BME280;6052;53.246;10.368;2023-08-31T04:53:59;100131.38;;;16.21;90.26
11985;BME280;6052;53.246;10.368;2023-08-31T04:56:30;100140.97;;;16.37;89.82
11985;BME280;6052;53.246;10.368;2023-08-31T04:59:01;100143.34;;;16.43;89.35
11985;BME280;6052;53.246;10.368;2023-08-31T05:01:34;100138.06;;;16.28;89.53
11985;BME280;6052;53.246;10.368;2023-08-31T05:04:03;100139.50;;;16.21;89.32
11985;BME280;6052;53.246;10.368;2023-08-31T05:06:33;100140.31;;;16.21;89.61
11985;BME280;6052;53.246;10.368;2023-08-31T05:09:02;100143.63;;;16.13;90.60
11985;BME280;6052;53.246;10.368;2023-08-31T05:11:32;100148.38;;;16.03;90.36
11985;BME280;6052;53.246;10.368;2023-08-31T05:14:02;100146.28;;;15.95;91.28
11985;BME280;6052;53.246;10.368;2023-08-31T05:16:34;100141.91;;;16.22;91.48
11985;BME280;6052;53.246;10.368;2023-08-31T05:19:03;100143.63;;;15.90;92.10
11985;BME280;6052;53.246;10.368;2023-08-31T05:21:33;100150.22;;;15.79;93.02
11985;BME280;6052;53.246;10.368;2023-08-31T05:24:03;100150.16;;;15.84;92.60
11985;BME280;6052;53.246;10.368;2023-08-31T05:26:32;100152.47;;;16.00;92.54
11985;BME280;6052;53.246;10.368;2023-08-31T05:29:02;100161.97;;;15.98;92.53
11985;BME280;6052;53.246;10.368;2023-08-31T05:31:35;100155.06;;;16.10;92.24
11985;BME280;6052;53.246;10.368;2023-08-31T05:34:04;100161.97;;;15.98;92.49
11985;BME280;6052;53.246;10.368;2023-08-31T05:36:33;100166.56;;;15.97;93.72
11985;BME280;6052;53.246;10.368;2023-08-31T05:39:03;100172.78;;;15.98;93.42
11985;BME280;6052;53.246;10.368;2023-08-31T05:41:32;100171.97;;;15.69;94.79
11985;BME280;6052;53.246;10.368;2023-08-31T05:44:02;100177.00;;;15.80;95.25
11985;BME280;6052;53.246;10.368;2023-08-31T05:46:34;100178.44;;;15.68;94.68
11985;BME280;6052;53.246;10.368;2023-08-31T05:49:05;100173.81;;;16.02;93.75
11985;BME280;6052;53.246;10.368;2023-08-31T05:51:34;100181.09;;;15.78;95.04
11985;BME280;6052;53.246;10.368;2023-08-31T05:54:04;100181.38;;;15.76;94.95
11985;BME280;6052;53.246;10.368;2023-08-31T05:56:37;100183.75;;;15.83;95.17
11985;BME280;6052;53.246;10.368;2023-08-31T05:59:07;100191.00;;;15.87;94.72
11985;BME280;6052;53.246;10.368;2023-08-31T06:01:39;100184.72;;;15.92;95.16
11985;BME280;6052;53.246;10.368;2023-08-31T06:04:08;100189.72;;;16.08;94.14
11985;BME280;6052;53.246;10.368;2023-08-31T06:06:38;100190.19;;;15.87;95.32
11985;BME280;6052;53.246;10.368;2023-08-31T06:09:07;100197.28;;;15.83;96.42
11985;BME280;6052;53.246;10.368;2023-08-31T06:11:37;100199.59;;;15.94;95.50
11985;BME280;6052;53.246;10.368;2023-08-31T06:14:07;100201.28;;;15.90;96.19
11985;BME280;6052;53.246;10.368;2023-08-31T06:16:39;100195.81;;;15.95;96.12
11985;BME280;6052;53.246;10.368;2023-08-31T06:19:08;100200.75;;;15.88;96.25
11985;BME280;6052;53.246;10.368;2023-08-31T06:21:41;100187.78;;;15.85;96.48
11985;BME280;6052;53.246;10.368;2023-08-31T06:24:11;100189.41;;;15.86;96.79
11985;BME280;6052;53.246;10.368;2023-08-31T06:26:41;100199.81;;;16.03;96.11
11985;BME280;6052;53.246;10.368;2023-08-31T06:29:10;100202.16;;;15.81;96.34
11985;BME280;6052;53.246;10.368;2023-08-31T06:31:43;100207.91;;;15.69;97.15
11985;BME280;6052;53.246;10.368;2023-08-31T06:34:12;100202.03;;;15.96;96.96
11985;BME280;6052;53.246;10.368;2023-08-31T06:36:41;100203.25;;;15.80;97.62
11985;BME280;6052;53.246;10.368;2023-08-31T06:39:11;100200.41;;;15.95;97.11
11985;BME280;6052;53.246;10.368;2023-08-31T06:41:42;100206.38;;;15.92;97.24
11985;BME280;6052;53.246;10.368;2023-08-31T06:44:11;100194.34;;;16.08;96.20
11985;BME280;6052;53.246;10.368;2023-08-31T06:46:43;100201.31;;;15.85;97.45
11985;BME280;6052;53.246;10.368;2023-08-31T06:49:13;100202.66;;;15.88;98.12
11985;BME280;6052;53.246;10.368;2023-08-31T06:51:42;100207.38;;;15.72;99.00
11985;BME280;6052;53.246;10.368;2023-08-31T06:54:12;100214.91;;;15.80;98.62
11985;BME280;6052;53.246;10.368;2023-08-31T06:56:41;100204.69;;;16.01;98.55
11985;BME280;6052;53.246;10.368;2023-08-31T06:59:10;100208.44;;;16.05;98.76
11985;BME280;6052;53.246;10.368;2023-08-31T07:01:40;100208.56;;;15.90;98.36
11985;BME280;6052;53.246;10.368;2023-08-31T07:04:12;100203.06;;;16.00;97.40
11985;BME280;6052;53.246;10.368;2023-08-31T07:06:41;100212.91;;;15.91;97.99
11985;BME280;6052;53.246;10.368;2023-08-31T07:09:10;100219.09;;;15.96;97.49
11985;BME280;6052;53.246;10.368;2023-08-31T07:11:40;100215.44;;;15.77;97.00
11985;BME280;6052;53.246;10.368;2023-08-31T07:14:09;100213.69;;;15.96;97.01
11985;BME280;6052;53.246;10.368;2023-08-31T07:16:39;100213.34;;;16.03;97.08
11985;BME280;6052;53.246;10.368;2023-08-31T07:19:08;100206.38;;;15.92;96.31
11985;BME280;6052;53.246;10.368;2023-08-31T07:21:41;100205.38;;;15.88;96.44
11985;BME280;6052;53.246;10.368;2023-08-31T07:24:10;100205.66;;;16.15;96.13
11985;BME280;6052;53.246;10.368;2023-08-31T07:26:39;100218.13;;;16.11;96.27
11985;BME280;6052;53.246;10.368;2023-08-31T07:29:09;100209.53;;;16.04;95.63
11985;BME280;6052;53.246;10.368;2023-08-31T07:31:38;100214.59;;;16.15;96.25
11985;BME280;6052;53.246;10.368;2023-08-31T07:34:08;100213.72;;;16.20;97.75
11985;BME280;6052;53.246;10.368;2023-08-31T07:36:37;100211.56;;;16.22;98.22
11985;BME280;6052;53.246;10.368;2023-08-31T07:39:09;100211.69;;;16.35;97.77
11985;BME280;6052;53.246;10.368;2023-08-31T07:41:38;100206.31;;;16.30;96.30
11985;BME280;6052;53.246;10.368;2023-08-31T07:44:08;100218.19;;;16.06;97.83
11985;BME280;6052;53.246;10.368;2023-08-31T07:46:37;100218.63;;;16.18;98.17
11985;BME280;6052;53.246;10.368;2023-08-31T07:49:07;100210.81;;;16.11;98.04
11985;BME280;6052;53.246;10.368;2023-08-31T07:51:36;100208.78;;;16.27;97.76
11985;BME280;6052;53.246;10.368;2023-08-31T07:54:09;100214.22;;;16.27;97.09
11985;BME280;6052;53.246;10.368;2023-08-31T07:56:39;100221.69;;;16.35;97.46
11985;BME280;6052;53.246;10.368;2023-08-31T07:59:09;100216.56;;;16.05;96.51
11985;BME280;6052;53.246;10.368;2023-08-31T08:01:39;100229.03;;;16.34;97.68
11985;BME280;6052;53.246;10.368;2023-08-31T08:04:10;100234.16;;;16.07;97.29
11985;BME280;6052;53.246;10.368;2023-08-31T08:06:40;100235.00;;;16.03;97.71
11985;BME280;6052;53.246;10.368;2023-08-31T08:09:12;100239.41;;;15.94;97.97
11985;BME280;6052;53.246;10.368;2023-08-31T08:11:42;100235.06;;;15.98;99.52
11985;BME280;6052;53.246;10.368;2023-08-31T08:14:11;100231.22;;;16.04;100.00
11985;BME280;6052;53.246;10.368;2023-08-31T08:16:42;100242.22;;;16.12;100.00
11985;BME280;6052;53.246;10.368;2023-08-31T08:19:11;100239.84;;;16.06;100.00
11985;BME280;6052;53.246;10.368;2023-08-31T08:21:41;100249.03;;;16.10;100.00
11985;BME280;6052;53.246;10.368;2023-08-31T08:24:12;100244.56;;;16.24;100.00
11985;BME280;6052;53.246;10.368;2023-08-31T08:26:42;100247.75;;;16.31;100.00
11985;BME280;6052;53.246;10.368;2023-08-31T08:29:12;100243.88;;;16.42;100.00
11985;BME280;6052;53.246;10.368;2023-08-31T08:31:41;100244.31;;;16.77;100.00
11985;BME280;6052;53.246;10.368;2023-08-31T08:34:11;100240.09;;;16.90;100.00
11985;BME280;6052;53.246;10.368;2023-08-31T08:36:40;100235.03;;;16.83;100.00
11985;BME280;6052;53.246;10.368;2023-08-31T08:39:10;100230.06;;;16.67;100.00
11985;BME280;6052;53.246;10.368;2023-08-31T08:41:43;100223.47;;;17.20;100.00
11985;BME280;6052;53.246;10.368;2023-08-31T08:44:16;100226.00;;;17.11;99.66
11985;BME280;6052;53.246;10.368;2023-08-31T08:46:48;100227.00;;;16.97;97.70
11985;BME280;6052;53.246;10.368;2023-08-31T08:49:19;100231.53;;;17.01;97.77
11985;BME280;6052;53.246;10.368;2023-08-31T08:51:49;100235.06;;;17.02;97.24
11985;BME280;6052;53.246;10.368;2023-08-31T08:54:19;100239.34;;;16.84;95.51
11985;BME280;6052;53.246;10.368;2023-08-31T08:56:53;100231.56;;;16.78;96.18
11985;BME280;6052;53.246;10.368;2023-08-31T08:59:23;100232.38;;;17.02;95.66
11985;BME280;6052;53.246;10.368;2023-08-31T09:01:53;100227.16;;;17.05;95.70
11985;BME280;6052;53.246;10.368;2023-08-31T09:04:22;100226.50;;;16.95;95.16
11985;BME280;6052;53.246;10.368;2023-08-31T09:06:52;100243.69;;;17.27;95.83
11985;BME280;6052;53.246;10.368;2023-08-31T09:09:21;100232.78;;;17.32;95.13
11985;BME280;6052;53.246;10.368;2023-08-31T09:11:53;100226.25;;;17.33;93.79
11985;BME280;6052;53.246;10.368;2023-08-31T09:14:23;100238.59;;;17.44;93.46
11985;BME280;6052;53.246;10.368;2023-08-31T09:16:52;100237.88;;;17.39;93.20
11985;BME280;6052;53.246;10.368;2023-08-31T09:19:23;100245.13;;;17.43;93.98
11985;BME280;6052;53.246;10.368;2023-08-31T09:21:56;100229.66;;;17.44;92.83
11985;BME280;6052;53.246;10.368;2023-08-31T09:24:26;100223.22;;;17.40;92.29
11985;BME280;6052;53.246;10.368;2023-08-31T09:26:59;100234.31;;;17.20;92.39
11985;BME280;6052;53.246;10.368;2023-08-31T09:29:28;100231.06;;;17.18;91.09
11985;BME280;6052;53.246;10.368;2023-08-31T09:31:58;100229.53;;;17.30;91.46
11985;BME280;6052;53.246;10.368;2023-08-31T09:34:32;100235.31;;;17.24;94.71
11985;BME280;6052;53.246;10.368;2023-08-31T09:37:05;100230.28;;;16.94;94.85
11985;BME280;6052;53.246;10.368;2023-08-31T09:39:36;100227.50;;;16.99;95.79
11985;BME280;6052;53.246;10.368;2023-08-31T09:42:08;100226.53;;;16.90;97.03
11985;BME280;6052;53.246;10.368;2023-08-31T09:44:40;100226.38;;;17.05;96.64
11985;BME280;6052;53.246;10.368;2023-08-31T09:47:09;100230.91;;;17.09;96.78
11985;BME280;6052;53.246;10.368;2023-08-31T09:49:41;100231.13;;;17.13;97.58
11985;BME280;6052;53.246;10.368;2023-08-31T09:52:12;100244.75;;;17.08;97.27
11985;BME280;6052;53.246;10.368;2023-08-31T09:54:43;100245.78;;;17.12;97.91
11985;BME280;6052;53.246;10.368;2023-08-31T09:57:17;100246.88;;;16.87;97.08
11985;BME280;6052;53.246;10.368;2023-08-31T10:00:07;100245.34;;;17.05;98.80
11985;BME280;6052;53.246;10.368;2023-08-31T10:02:36;100249.19;;;16.99;99.23
11985;BME280;6052;53.246;10.368;2023-08-31T10:05:06;100254.44;;;17.14;100.00
11985;BME280;6052;53.246;10.368;2023-08-31T10:07:37;100253.81;;;16.75;98.03
11985;BME280;6052;53.246;10.368;2023-08-31T10:10:08;100253.78;;;17.03;98.05
11985;BME280;6052;53.246;10.368;2023-08-31T10:12:40;100246.91;;;17.11;97.23
11985;BME280;6052;53.246;10.368;2023-08-31T10:15:10;100251.59;;;17.24;97.14
11985;BME280;6052;53.246;10.368;2023-08-31T10:17:40;100251.03;;;17.27;97.51
11985;BME280;6052;53.246;10.368;2023-08-31T10:20:11;100246.63;;;17.31;98.20
11985;BME280;6052;53.246;10.368;2023-08-31T10:22:41;100250.59;;;17.20;95.68
11985;BME280;6052;53.246;10.368;2023-08-31T10:25:11;100248.31;;;17.27;95.82
11985;BME280;6052;53.246;10.368;2023-08-31T10:27:44;100250.84;;;17.00;94.84
11985;BME280;6052;53.246;10.368;2023-08-31T10:30:26;100258.47;;;17.58;94.26
11985;BME280;6052;53.246;10.368;2023-08-31T10:33:19;100252.31;;;17.71;94.43
11985;BME280;6052;53.246;10.368;2023-08-31T10:35:50;100247.91;;;17.57;94.22
11985;BME280;6052;53.246;10.368;2023-08-31T10:38:24;100250.56;;;17.43;95.34
11985;BME280;6052;53.246;10.368;2023-08-31T10:41:03;100251.59;;;17.47;94.79
11985;BME280;6052;53.246;10.368;2023-08-31T10:43:50;100254.09;;;17.62;93.59
11985;BME280;6052;53.246;10.368;2023-08-31T10:46:26;100256.06;;;17.57;94.04
11985;BME280;6052;53.246;10.368;2023-08-31T10:48:57;100252.75;;;17.60;93.51
11985;BME280;6052;53.246;10.368;2023-08-31T10:51:29;100236.41;;;17.65;93.63
11985;BME280;6052;53.246;10.368;2023-08-31T10:54:06;100242.41;;;17.80;92.69
11985;BME280;6052;53.246;10.368;2023-08-31T10:59:59;100239.56;;;17.53;90.57
11985;BME280;6052;53.246;10.368;2023-08-31T11:02:30;100237.19;;;17.65;91.13
11985;BME280;6052;53.246;10.368;2023-08-31T11:05:04;100235.44;;;17.74;89.35
11985;BME280;6052;53.246;10.368;2023-08-31T11:07:35;100237.28;;;17.79;89.78
11985;BME280;6052;53.246;10.368;2023-08-31T11:10:13;100228.38;;;17.73;88.52
11985;BME280;6052;53.246;10.368;2023-08-31T11:12:45;100234.41;;;17.89;87.99
11985;BME280;6052;53.246;10.368;2023-08-31T11:15:18;100230.38;;;17.68;87.49
11985;BME280;6052;53.246;10.368;2023-08-31T11:17:50;100234.31;;;17.94;87.63
11985;BME280;6052;53.246;10.368;2023-08-31T11:20:20;100233.13;;;18.00;88.76
11985;BME280;6052;53.246;10.368;2023-08-31T11:22:55;100231.44;;;18.04;89.54
11985;BME280;6052;53.246;10.368;2023-08-31T11:25:25;100229.22;;;18.06;89.33
11985;BME280;6052;53.246;10.368;2023-08-31T11:27:54;100228.34;;;17.92;87.12
11985;BME280;6052;53.246;10.368;2023-08-31T11:30:28;100237.53;;;17.96;85.68
11985;BME280;6052;53.246;10.368;2023-08-31T11:33:02;100239.66;;;17.99;85.31
11985;BME280;6052;53.246;10.368;2023-08-31T11:35:34;100239.53;;;18.22;85.55
11985;BME280;6052;53.246;10.368;2023-08-31T11:38:04;100251.41;;;18.26;86.35
11985;BME280;6052;53.246;10.368;2023-08-31T11:40:33;100235.09;;;18.13;85.33
11985;BME280;6052;53.246;10.368;2023-08-31T11:43:04;100242.41;;;18.12;85.07
11985;BME280;6052;53.246;10.368;2023-08-31T11:45:36;100243.25;;;18.13;84.88
11985;BME280;6052;53.246;10.368;2023-08-31T11:48:07;100251.56;;;18.35;84.63
11985;BME280;6052;53.246;10.368;2023-08-31T11:50:37;100248.56;;;18.36;84.24
11985;BME280;6052;53.246;10.368;2023-08-31T11:53:08;100259.22;;;18.33;83.64
11985;BME280;6052;53.246;10.368;2023-08-31T11:55:49;100253.78;;;18.33;84.28
11985;BME280;6052;53.246;10.368;2023-08-31T11:58:20;100251.59;;;18.48;84.69
11985;BME280;6052;53.246;10.368;2023-08-31T12:00:57;100253.72;;;18.51;84.18
11985;BME280;6052;53.246;10.368;2023-08-31T12:03:27;100258.13;;;18.47;82.58
11985;BME280;6052;53.246;10.368;2023-08-31T12:06:15;100267.75;;;18.58;83.99
11985;BME280;6052;53.246;10.368;2023-08-31T12:08:45;100258.34;;;18.51;83.63
11985;BME280;6052;53.246;10.368;2023-08-31T12:11:15;100254.91;;;18.45;83.06
11985;BME280;6052;53.246;10.368;2023-08-31T12:13:45;100254.00;;;18.50;83.44
11985;BME280;6052;53.246;10.368;2023-08-31T12:16:17;100260.06;;;18.47;82.71
11985;BME280;6052;53.246;10.368;2023-08-31T12:18:46;100268.41;;;18.50;82.87
11985;BME280;6052;53.246;10.368;2023-08-31T12:21:19;100261.66;;;18.48;82.93
11985;BME280;6052;53.246;10.368;2023-08-31T12:23:48;100259.88;;;18.57;81.26
11985;BME280;6052;53.246;10.368;2023-08-31T12:26:17;100263.47;;;18.52;80.69
11985;BME280;6052;53.246;10.368;2023-08-31T12:28:47;100266.69;;;18.41;79.75
11985;BME280;6052;53.246;10.368;2023-08-31T12:31:19;100260.56;;;18.49;80.02
11985;BME280;6052;53.246;10.368;2023-08-31T12:33:49;100262.91;;;18.69;80.20
11985;BME280;6052;53.246;10.368;2023-08-31T12:36:18;100256.97;;;18.67;80.59
11985;BME280;6052;53.246;10.368;2023-08-31T12:38:50;100262.22;;;18.63;81.10
11985;BME280;6052;53.246;10.368;2023-08-31T12:41:20;100269.16;;;18.69;79.75
11985;BME280;6052;53.246;10.368;2023-08-31T12:43:50;100257.84;;;18.62;79.14
11985;BME280;6052;53.246;10.368;2023-08-31T12:46:22;100262.50;;;18.75;78.65
11985;BME280;6052;53.246;10.368;2023-08-31T12:48:51;100261.50;;;18.71;78.72
11985;BME280;6052;53.246;10.368;2023-08-31T12:51:21;100264.63;;;18.78;79.10
11985;BME280;6052;53.246;10.368;2023-08-31T12:53:51;100267.66;;;18.90;78.65
11985;BME280;6052;53.246;10.368;2023-08-31T12:56:20;100266.34;;;18.88;79.03
11985;BME280;6052;53.246;10.368;2023-08-31T12:58:51;100262.13;;;18.68;77.79
11985;BME280;6052;53.246;10.368;2023-08-31T13:01:23;100267.94;;;18.62;76.42
11985;BME280;6052;53.246;10.368;2023-08-31T13:03:53;100268.97;;;18.66;75.92
11985;BME280;6052;53.246;10.368;2023-08-31T13:06:22;100263.09;;;18.72;76.74
11985;BME280;6052;53.246;10.368;2023-08-31T13:08:53;100268.88;;;18.71;76.87
11985;BME280;6052;53.246;10.368;2023-08-31T13:11:22;100270.88;;;18.79;77.94
11985;BME280;6052;53.246;10.368;2023-08-31T13:13:52;100272.28;;;18.76;80.14